Time;durP1;ratioP1;P1;durP2;ratioP2;P2;SDS_P1;SDS_P2;PMS_P1;PMS_P2;Temp;Humidity;BMP_temperature;BMP_pressure;BME280_temperature;BME280_humidity;BME280_pressure;Samples;Min_cycle;Max_cycle;Signal;HPM_P1;HPM_P2
2022/01/04 00:00:41;;;;;;;25.95;3.10;;;;;;;8.38;100.00;100077.50;5033087;28;20051;-32
2022/01/04 00:03:10;;;;;;;24.73;3.05;;;;;;;8.39;100.00;100079.97;5032126;28;20410;-32
2022/01/04 00:05:39;;;;;;;25.52;3.95;;;;;;;8.39;100.00;100071.66;5033065;28;20055;-38
2022/01/04 00:08:09;;;;;;;20.35;2.95;;;;;;;8.37;100.00;100062.78;5033155;28;20049;-32
2022/01/04 00:10:38;;;;;;;22.65;3.13;;;;;;;8.38;100.00;100066.38;5031665;28;20060;-37
2022/01/04 00:13:23;;;;;;;25.08;3.38;;;;;;;8.35;100.00;100059.47;5031935;28;20049;-33
2022/01/04 00:15:53;;;;;;;17.88;2.70;;;;;;;8.34;100.00;100057.81;5031546;28;20051;-34
2022/01/04 00:18:21;;;;;;;24.05;3.38;;;;;;;8.33;100.00;100053.41;5031918;28;20065;-40
2022/01/04 00:20:49;;;;;;;21.67;2.75;;;;;;;8.34;100.00;100043.94;5032726;28;20148;-32
2022/01/04 00:23:18;;;;;;;19.00;3.10;;;;;;;8.34;100.00;100043.94;5031947;28;20049;-30
2022/01/04 00:25:47;;;;;;;22.42;2.90;;;;;;;8.34;100.00;100040.31;5032498;28;20057;-37
2022/01/04 00:28:15;;;;;;;25.23;3.10;;;;;;;8.33;100.00;100033.94;5032387;28;20049;-38
2022/01/04 00:30:43;;;;;;;20.42;3.47;;;;;;;8.33;100.00;100025.59;5031697;28;20045;-34
2022/01/04 00:33:16;;;;;;;14.95;2.65;;;;;;;8.34;100.00;100021.69;5032498;28;20088;-35
2022/01/04 00:35:45;;;;;;;23.17;3.30;;;;;;;8.33;100.00;100013.66;5031688;28;20049;-36
2022/01/04 00:38:12;;;;;;;22.13;2.83;;;;;;;8.31;100.00;100013.94;5031578;28;20052;-37
2022/01/04 00:40:41;;;;;;;22.92;2.90;;;;;;;8.31;100.00;100011.16;5032221;28;20064;-38
2022/01/04 00:43:08;;;;;;;22.67;3.20;;;;;;;8.33;100.00;100003.34;5032493;28;20054;-42
2022/01/04 00:45:37;;;;;;;21.38;2.78;;;;;;;8.32;100.00;100007.28;5031500;28;20049;-40
2022/01/04 00:50:53;;;;;;;21.20;2.95;;;;;;;8.33;100.00;100002.53;5032137;28;20052;-36
2022/01/04 00:53:22;;;;;;;24.45;3.08;;;;;;;8.32;100.00;100004.50;5030284;28;20504;-38
2022/01/04 00:55:50;;;;;;;24.52;2.95;;;;;;;8.33;100.00;100002.53;5031586;28;20053;-40
2022/01/04 00:58:17;;;;;;;21.52;3.20;;;;;;;8.33;100.00;99997.81;5031731;28;20505;-37
2022/01/04 01:00:45;;;;;;;22.30;3.00;;;;;;;8.34;100.00;99996.66;5031055;28;20045;-35
2022/01/04 01:03:13;;;;;;;15.25;2.55;;;;;;;8.33;100.00;99997.81;5031711;28;20045;-30
2022/01/04 01:05:41;;;;;;;20.88;3.00;;;;;;;8.32;100.00;99992.50;5030901;28;20156;-39
2022/01/04 01:08:10;;;;;;;22.35;3.08;;;;;;;8.31;100.00;99988.91;5030662;28;20061;-35
2022/01/04 01:10:47;;;;;;;25.33;2.88;;;;;;;8.32;100.00;99990.59;5031317;28;20057;-38
2022/01/04 01:13:15;;;;;;;24.83;3.63;;;;;;;8.32;100.00;99979.47;5030899;28;20092;-37
2022/01/04 01:15:45;;;;;;;23.30;2.95;;;;;;;8.33;100.00;99983.06;5030550;28;20049;-37
2022/01/04 01:18:15;;;;;;;26.40;3.15;;;;;;;8.32;100.00;99982.25;5030557;28;20049;-34
2022/01/04 01:20:46;;;;;;;15.73;2.38;;;;;;;8.33;100.00;99970.00;5030765;28;20067;-33
2022/01/04 01:23:15;;;;;;;22.40;2.85;;;;;;;8.33;100.00;99966.41;5031272;28;20056;-40
2022/01/04 01:25:43;;;;;;;21.85;3.03;;;;;;;8.33;100.00;99970.00;5030546;28;20069;-31
2022/01/04 01:28:10;;;;;;;24.77;3.22;;;;;;;8.32;100.00;99971.13;5030299;28;20142;-33
2022/01/04 01:30:41;;;;;;;24.35;3.45;;;;;;;8.35;100.00;99970.53;5031282;28;20045;-36
2022/01/04 01:33:09;;;;;;;20.40;2.67;;;;;;;8.38;100.00;99964.34;5031473;28;20052;-35
2022/01/04 01:35:37;;;;;;;24.60;3.20;;;;;;;8.40;100.00;99961.25;5030074;28;20140;-36
2022/01/04 01:38:05;;;;;;;20.30;2.97;;;;;;;8.39;100.00;99960.44;5031575;28;20067;-33
2022/01/04 01:40:36;;;;;;;24.67;3.03;;;;;;;8.41;100.00;99960.13;5030653;28;20064;-37
2022/01/04 01:43:04;;;;;;;23.00;3.40;;;;;;;8.40;100.00;99958.47;5031238;28;20518;-38
2022/01/04 01:45:32;;;;;;;19.83;3.38;;;;;;;8.41;100.00;99949.00;5031200;28;20135;-33
2022/01/04 01:48:01;;;;;;;20.05;3.20;;;;;;;8.41;100.00;99954.56;5030246;28;20049;-34
2022/01/04 01:50:29;;;;;;;25.27;3.35;;;;;;;8.40;100.00;99947.34;5030587;28;20113;-33
2022/01/04 01:52:57;;;;;;;16.80;2.72;;;;;;;8.41;100.00;99938.69;5030947;28;20502;-34
2022/01/04 01:55:25;;;;;;;18.58;3.20;;;;;;;8.38;100.00;99933.78;5030110;28;20057;-35
2022/01/04 01:57:55;;;;;;;22.08;2.88;;;;;;;8.39;100.00;99921.53;5030973;28;20072;-34
2022/01/04 02:00:26;;;;;;;22.30;3.40;;;;;;;8.37;100.00;99914.63;5031179;28;20046;-29
2022/01/04 02:02:54;;;;;;;17.05;3.10;;;;;;;8.35;100.00;99928.84;5029887;28;20049;-30
2022/01/04 02:05:22;;;;;;;22.52;3.13;;;;;;;8.37;100.00;99917.41;5030636;28;20053;-34
2022/01/04 02:07:51;;;;;;;24.08;3.55;;;;;;;8.34;100.00;99916.06;5030722;28;20128;-40
2022/01/04 02:10:19;;;;;;;24.50;3.25;;;;;;;8.35;100.00;99903.81;5029098;28;20281;-39
2022/01/04 02:12:49;;;;;;;20.45;2.72;;;;;;;8.37;100.00;99893.22;5030692;28;20064;-35
2022/01/04 02:15:21;;;;;;;19.75;2.65;;;;;;;8.39;100.00;99890.13;5030457;28;20256;-37
2022/01/04 02:17:49;;;;;;;23.95;2.67;;;;;;;8.37;100.00;99884.06;5029725;28;20491;-35
2022/01/04 02:20:19;;;;;;;19.83;3.00;;;;;;;8.37;100.00;99887.66;5030968;28;20411;-36
2022/01/04 02:22:48;;;;;;;19.88;2.75;;;;;;;8.36;100.00;99877.66;5030065;28;20086;-33
2022/01/04 02:25:17;;;;;;;22.63;3.10;;;;;;;8.37;100.00;99882.09;5030105;28;20057;-33
2022/01/04 02:27:45;;;;;;;21.55;2.80;;;;;;;8.37;100.00;99882.09;5029640;28;20401;-35
2022/01/04 02:30:15;;;;;;;24.40;2.95;;;;;;;8.36;100.00;99874.88;5030045;28;20056;-32
2022/01/04 02:32:44;;;;;;;19.90;3.20;;;;;;;8.35;100.00;99864.91;5030398;28;20072;-37
2022/01/04 02:35:13;;;;;;;22.38;3.60;;;;;;;8.35;100.00;99855.72;5030697;28;20517;-37
2022/01/04 02:37:43;;;;;;;20.52;2.70;;;;;;;8.33;100.00;99861.59;5029813;28;20049;-42
2022/01/04 02:40:10;;;;;;;21.05;3.22;;;;;;;8.32;100.00;99851.63;5030151;28;20049;-37
2022/01/04 02:42:39;;;;;;;24.33;3.22;;;;;;;8.33;100.00;99849.66;5030519;28;20049;-39
2022/01/04 02:45:08;;;;;;;24.00;3.40;;;;;;;8.33;100.00;99841.31;5030088;28;20047;-35
2022/01/04 02:47:36;;;;;;;21.75;3.08;;;;;;;8.32;100.00;99837.72;5030573;28;20077;-40
2022/01/04 02:50:04;;;;;;;20.20;3.10;;;;;;;8.33;100.00;99830.19;5030642;28;20046;-36
2022/01/04 02:52:33;;;;;;;22.50;2.90;;;;;;;8.34;100.00;99827.13;5030080;28;20069;-41
2022/01/04 02:55:04;;;;;;;28.30;3.95;;;;;;;8.35;100.00;99830.72;5012953;28;20045;-33
2022/01/04 02:57:32;;;;;;;21.88;3.70;;;;;;;8.33;100.00;99822.69;5030773;28;20249;-33
2022/01/04 03:00:00;;;;;;;18.60;2.80;;;;;;;8.33;100.00;99819.91;5031948;28;20060;-34
2022/01/04 03:02:28;;;;;;;23.52;3.15;;;;;;;8.34;100.00;99823.50;5033366;28;20053;-33
2022/01/04 03:04:56;;;;;;;24.38;4.07;;;;;;;8.34;100.00;99821.56;5032168;28;20056;-32
2022/01/04 03:07:23;;;;;;;22.15;2.92;;;;;;;8.35;100.00;99822.38;5034007;28;20116;-41
2022/01/04 03:09:51;;;;;;;22.85;3.13;;;;;;;8.35;100.00;99816.81;5034021;28;20049;-38
2022/01/04 03:12:20;;;;;;;23.77;2.97;;;;;;;8.35;100.00;99812.09;5033219;28;20050;-33
2022/01/04 03:14:48;;;;;;;17.52;3.08;;;;;;;8.35;100.00;99808.47;5033870;28;20045;-35
2022/01/04 03:17:16;;;;;;;23.15;2.80;;;;;;;8.35;100.00;99811.25;5034052;28;20098;-37
2022/01/04 03:19:44;;;;;;;19.17;3.00;;;;;;;8.35;100.00;99802.91;5032701;28;20058;-33
2022/01/04 03:22:11;;;;;;;26.10;3.05;;;;;;;8.34;100.00;99779.88;5033737;28;20084;-36
2022/01/04 03:24:39;;;;;;;21.58;3.65;;;;;;;8.32;100.00;99789.59;5033839;28;20055;-39
2022/01/04 03:27:07;;;;;;;24.70;2.63;;;;;;;8.34;100.00;99790.16;5032968;28;20060;-40
2022/01/04 03:29:36;;;;;;;19.90;3.10;;;;;;;8.33;100.00;99794.06;5032525;28;20053;-37
2022/01/04 03:32:04;;;;;;;19.73;2.70;;;;;;;8.35;100.00;99780.69;5033767;28;20054;-37
2022/01/04 03:34:32;;;;;;;19.27;2.80;;;;;;;8.34;100.00;99779.88;5032905;28;20041;-41
2022/01/04 03:37:00;;;;;;;15.25;2.47;;;;;;;8.35;100.00;99764.84;5033023;28;20053;-35
2022/01/04 03:39:27;;;;;;;21.95;2.88;;;;;;;8.37;100.00;99762.56;5015368;28;20406;-37
2022/01/04 03:41:56;;;;;;;23.80;2.92;;;;;;;8.39;100.00;99768.63;5032294;28;20537;-39
2022/01/04 03:44:23;;;;;;;16.65;2.35;;;;;;;8.41;100.00;99760.78;5033622;28;20061;-38
2022/01/04 03:46:55;;;;;;;22.85;2.60;;;;;;;8.46;100.00;99759.84;5033406;28;20041;-41
2022/01/04 03:49:23;;;;;;;22.42;2.90;;;;;;;8.43;100.00;99747.41;5032693;28;20041;-35
2022/01/04 03:51:51;;;;;;;24.50;3.45;;;;;;;8.45;100.00;99744.31;5032862;28;20057;-35
2022/01/04 03:54:19;;;;;;;20.95;2.90;;;;;;;8.44;100.00;99739.88;5032123;28;20055;-41
2022/01/04 03:56:47;;;;;;;24.02;2.90;;;;;;;8.45;100.00;99739.56;5033221;28;20388;-37
2022/01/04 03:59:15;;;;;;;23.83;2.78;;;;;;;8.48;100.00;99738.13;5033238;28;20050;-33
2022/01/04 04:01:43;;;;;;;22.42;3.33;;;;;;;8.45;100.00;99725.66;5032119;28;20487;-34
2022/01/04 04:04:13;;;;;;;21.90;2.80;;;;;;;8.46;100.00;99721.75;5031877;28;20130;-34
2022/01/04 04:06:41;;;;;;;17.02;2.67;;;;;;;8.47;100.00;99720.63;5032101;28;20049;-35
2022/01/04 04:09:09;;;;;;;23.20;3.10;;;;;;;8.47;100.00;99709.50;5032274;28;20483;-39
2022/01/04 04:11:37;;;;;;;22.40;2.70;;;;;;;8.48;100.00;99704.78;5031530;28;20058;-36
2022/01/04 04:14:04;;;;;;;21.05;3.38;;;;;;;8.48;100.00;99716.72;5032794;28;20502;-36
2022/01/04 04:16:33;;;;;;;24.17;3.30;;;;;;;8.50;100.00;99719.19;5032100;28;20048;-39
2022/01/04 04:19:01;;;;;;;18.90;2.47;;;;;;;8.49;100.00;99723.09;5032651;28;20056;-38
2022/01/04 04:21:30;;;;;;;16.63;2.92;;;;;;;8.48;100.00;99722.28;5032221;28;20056;-33
2022/01/04 04:23:58;;;;;;;17.17;2.65;;;;;;;8.48;100.00;99722.28;5031534;28;20052;-35
2022/01/04 04:26:26;;;;;;;21.38;2.80;;;;;;;8.49;100.00;99723.91;5032087;28;20060;-33
2022/01/04 04:28:53;;;;;;;22.38;3.13;;;;;;;8.48;100.00;99716.72;5032507;28;20041;-32
2022/01/04 04:31:21;;;;;;;19.38;2.85;;;;;;;8.48;100.00;99711.16;5031366;28;20045;-42
2022/01/04 04:33:49;;;;;;;22.35;3.15;;;;;;;8.50;100.00;99717.22;5032357;28;20056;-38
2022/01/04 04:36:16;;;;;;;17.05;2.97;;;;;;;8.49;100.00;99715.56;5031883;28;20053;-34
2022/01/04 04:38:46;;;;;;;15.63;3.10;;;;;;;8.51;100.00;99704.97;5030744;28;20057;-32
2022/01/04 04:41:13;;;;;;;20.77;2.65;;;;;;;8.52;100.00;99700.22;5031943;28;20132;-33
2022/01/04 04:43:41;;;;;;;13.65;2.28;;;;;;;8.50;100.00;99686.63;5031317;28;20497;-36
2022/01/04 04:46:09;;;;;;;19.83;2.65;;;;;;;8.50;100.00;99683.84;5032203;28;20056;-41
2022/01/04 04:48:37;;;;;;;22.50;3.50;;;;;;;8.48;100.00;99682.53;5031860;28;20045;-34
2022/01/04 04:51:05;;;;;;;18.42;2.88;;;;;;;8.48;100.00;99666.66;5031677;28;20056;-36
2022/01/04 04:53:33;;;;;;;16.95;3.03;;;;;;;8.50;100.00;99646.91;5031644;28;20049;-36
2022/01/04 04:56:02;;;;;;;21.27;3.85;;;;;;;8.50;100.00;99683.03;5032028;28;20060;-40
2022/01/04 04:58:30;;;;;;;17.95;2.85;;;;;;;8.51;100.00;99684.69;5030414;28;20053;-37
2022/01/04 05:00:57;;;;;;;14.73;2.60;;;;;;;8.50;100.00;99664.41;5031454;28;20049;-37
2022/01/04 05:03:26;;;;;;;24.25;3.03;;;;;;;8.50;100.00;99669.13;5031500;28;20128;-36
2022/01/04 05:05:53;;;;;;;17.73;3.22;;;;;;;8.51;100.00;99665.22;5030802;28;20045;-36
2022/01/04 05:08:21;;;;;;;19.90;2.88;;;;;;;8.50;100.00;99664.41;5013571;28;20414;-38
2022/01/04 05:10:49;;;;;;;19.77;2.25;;;;;;;8.51;100.00;99641.03;5031404;28;20495;-35
2022/01/04 05:13:18;;;;;;;23.08;3.13;;;;;;;8.51;100.00;99646.59;5030687;28;20049;-37
2022/01/04 05:15:45;;;;;;;17.25;2.90;;;;;;;8.49;100.00;99643.28;5031602;28;20049;-32
2022/01/04 05:18:13;;;;;;;20.58;2.58;;;;;;;8.50;100.00;99641.34;5031856;28;20120;-43
2022/01/04 05:20:41;;;;;;;18.98;2.50;;;;;;;8.48;100.00;99638.03;5030720;28;20068;-39
2022/01/04 05:23:08;;;;;;;20.20;3.08;;;;;;;8.49;100.00;99645.25;5031451;28;20053;-38
2022/01/04 05:25:36;;;;;;;15.55;2.22;;;;;;;8.49;100.00;99643.28;5030888;28;20049;-40
2022/01/04 05:28:04;;;;;;;17.00;2.33;;;;;;;8.47;100.00;99637.22;5031194;28;20049;-36
2022/01/04 05:30:33;;;;;;;25.73;2.90;;;;;;;8.49;100.00;99628.56;5031704;28;20072;-41
2022/01/04 05:33:01;;;;;;;15.55;2.22;;;;;;;8.48;100.00;99630.53;5030679;28;20037;-34
2022/01/04 05:35:28;;;;;;;15.82;2.38;;;;;;;8.48;100.00;99638.88;5031191;28;20049;-37
2022/01/04 05:37:56;;;;;;;19.25;3.38;;;;;;;8.48;100.00;99624.16;5031293;28;20055;-32
2022/01/04 05:40:24;;;;;;;19.50;2.45;;;;;;;8.46;100.00;99624.47;5030505;28;20061;-35
2022/01/04 05:42:52;;;;;;;16.85;2.85;;;;;;;8.45;100.00;99614.47;5031292;28;20060;-34
2022/01/04 05:45:20;;;;;;;14.05;2.10;;;;;;;8.45;100.00;99622.00;5031257;28;20103;-33
2022/01/04 05:47:49;;;;;;;16.67;2.10;;;;;;;8.44;100.00;99621.16;5030456;28;20068;-32
2022/01/04 05:50:16;;;;;;;17.08;2.33;;;;;;;8.44;100.00;99623.13;5031074;28;20053;-35
2022/01/04 05:52:44;;;;;;;12.15;2.47;;;;;;;8.42;100.00;99625.41;5031094;28;20519;-38
2022/01/04 05:55:12;;;;;;;15.50;2.40;;;;;;;8.40;100.00;99611.81;5030253;28;20133;-40
2022/01/04 05:57:40;;;;;;;17.63;2.38;;;;;;;8.37;100.00;99612.47;5031131;28;20049;-36
2022/01/04 06:00:09;;;;;;;17.95;2.33;;;;;;;8.37;100.00;99617.22;5031138;28;20538;-37
2022/01/04 06:02:38;;;;;;;12.80;1.98;;;;;;;8.33;100.00;99617.00;5030290;28;20479;-38
2022/01/04 06:05:10;;;;;;;10.80;1.95;;;;;;;8.31;100.00;99633.16;5030900;28;20056;-36
2022/01/04 06:07:38;;;;;;;15.13;2.35;;;;;;;8.24;100.00;99625.22;5030780;28;20053;-38
2022/01/04 06:10:09;;;;;;;13.65;1.90;;;;;;;8.23;100.00;99611.66;5030489;28;20049;-33
2022/01/04 06:15:22;;;;;;;14.52;2.42;;;;;;;8.18;100.00;99598.72;5030308;28;20491;-36
2022/01/04 06:17:50;;;;;;;13.63;2.40;;;;;;;8.20;100.00;99612.28;5030938;28;20041;-37
2022/01/04 06:20:21;;;;;;;15.23;2.45;;;;;;;8.22;100.00;99612.78;5030757;28;20037;-37
2022/01/04 06:22:49;;;;;;;19.80;2.85;;;;;;;8.21;100.00;99608.34;5030200;28;20067;-38
2022/01/04 06:25:20;;;;;;;11.40;2.13;;;;;;;8.20;100.00;99606.72;5030610;28;20049;-39
2022/01/04 06:27:51;;;;;;;15.77;2.78;;;;;;;8.20;100.00;99598.38;5030876;28;20049;-37
2022/01/04 06:30:21;;;;;;;14.43;2.10;;;;;;;8.20;100.00;99601.16;5029116;28;20076;-35
2022/01/04 06:32:51;;;;;;;17.25;2.40;;;;;;;8.19;100.00;99588.44;5030797;28;20077;-34
2022/01/04 06:35:20;;;;;;;15.38;2.22;;;;;;;8.18;100.00;99586.78;5033477;28;20268;-39
2022/01/04 06:37:49;;;;;;;19.65;2.58;;;;;;;8.18;100.00;99584.00;5033840;28;20037;-36
2022/01/04 06:40:17;;;;;;;14.35;2.22;;;;;;;8.17;100.00;99585.13;5034473;28;20050;-35
2022/01/04 06:42:44;;;;;;;20.70;2.17;;;;;;;8.17;100.00;99585.97;5034597;28;20065;-34
2022/01/04 06:45:13;;;;;;;14.48;2.97;;;;;;;8.16;100.00;99587.09;5033524;28;20418;-32
2022/01/04 06:47:41;;;;;;;15.88;2.70;;;;;;;8.14;100.00;99581.03;5033658;28;20076;-30
2022/01/04 06:50:11;;;;;;;14.93;2.40;;;;;;;8.14;100.00;99583.81;5033778;28;20392;-34
2022/01/04 06:52:40;;;;;;;14.07;2.10;;;;;;;8.14;100.00;99585.75;5034374;28;20049;-39
2022/01/04 06:55:09;;;;;;;10.80;2.55;;;;;;;8.11;100.00;99600.28;5033463;28;20510;-36
2022/01/04 06:57:37;;;;;;;12.98;2.13;;;;;;;8.08;100.00;99590.59;5031730;28;20072;-35
2022/01/04 07:00:06;;;;;;;12.77;1.98;;;;;;;8.06;100.00;99580.94;5033028;28;20418;-33
2022/01/04 07:02:34;;;;;;;11.10;2.03;;;;;;;8.03;100.00;99590.72;5032928;28;20054;-33
2022/01/04 07:05:02;;;;;;;16.65;2.42;;;;;;;8.01;100.00;99587.44;5032504;28;20088;-36
2022/01/04 07:07:29;;;;;;;14.00;1.90;;;;;;;8.01;100.00;99581.88;5032792;28;20055;-33
2022/01/04 07:09:58;;;;;;;10.23;1.70;;;;;;;8.02;100.00;99588.25;5032775;28;20057;-37
2022/01/04 07:12:26;;;;;;;13.02;2.00;;;;;;;8.03;100.00;99587.94;5032023;28;20502;-33
2022/01/04 07:14:54;;;;;;;15.55;2.40;;;;;;;8.03;100.00;99581.56;5030909;28;20057;-31
2022/01/04 07:17:22;;;;;;;18.70;3.15;;;;;;;8.03;100.00;99579.59;5014367;28;20671;-37
2022/01/04 07:19:49;;;;;;;11.85;2.35;;;;;;;8.03;100.00;99570.44;5031284;28;20144;-42
2022/01/04 07:22:17;;;;;;;11.63;2.00;;;;;;;8.03;100.00;99578.78;5032858;28;20049;-38
2022/01/04 07:24:45;;;;;;;9.68;2.17;;;;;;;8.02;100.00;99566.03;5014388;28;20375;-37
2022/01/04 07:27:14;;;;;;;18.15;2.67;;;;;;;8.03;100.00;99568.50;5031815;28;20064;-40
2022/01/04 07:29:42;;;;;;;11.07;1.75;;;;;;;8.02;100.00;99568.81;5032316;28;20496;-38
2022/01/04 07:32:10;;;;;;;16.63;2.95;;;;;;;8.02;100.00;99563.25;5032261;28;20050;-37
2022/01/04 07:34:38;;;;;;;16.38;2.42;;;;;;;8.02;100.00;99568.81;5031974;28;20129;-40
2022/01/04 07:37:06;;;;;;;19.27;3.22;;;;;;;8.01;100.00;99564.38;5032538;28;20042;-41
2022/01/04 07:39:33;;;;;;;14.85;2.40;;;;;;;8.01;100.00;99565.22;5031606;28;20090;-32
2022/01/04 07:42:03;;;;;;;16.20;2.40;;;;;;;8.00;100.00;99559.97;5032151;28;20060;-39
2022/01/04 07:44:34;;;;;;;14.18;2.17;;;;;;;8.00;100.00;99562.75;5014019;28;20064;-35
2022/01/04 07:47:02;;;;;;;12.48;2.22;;;;;;;7.97;100.00;99567.00;5030973;28;20045;-33
2022/01/04 07:49:29;;;;;;;12.80;2.28;;;;;;;7.95;100.00;99556.19;5031032;28;20045;-35
2022/01/04 07:51:58;;;;;;;13.13;2.10;;;;;;;7.94;100.00;99559.28;5031718;28;20056;-39
2022/01/04 07:54:25;;;;;;;14.38;2.85;;;;;;;7.94;100.00;99562.88;5031320;28;20147;-34
2022/01/04 07:56:53;;;;;;;12.10;2.28;;;;;;;7.93;100.00;99558.47;5031770;28;20067;-34
2022/01/04 07:59:21;;;;;;;8.80;1.52;;;;;;;7.92;100.00;99564.31;5031917;28;20060;-41
2022/01/04 08:01:50;;;;;;;14.88;1.90;;;;;;;7.91;100.00;99569.06;5031167;28;20062;-30
2022/01/04 08:04:19;;;;;;;16.88;2.20;;;;;;;7.89;100.00;99570.50;5031590;28;20080;-34
2022/01/04 08:06:46;;;;;;;11.05;1.50;;;;;;;7.86;100.00;99582.22;5030900;28;20038;-39
2022/01/04 08:09:14;;;;;;;15.48;1.92;;;;;;;7.82;100.00;99587.59;5030213;28;20048;-38
2022/01/04 08:11:42;;;;;;;5.85;1.30;;;;;;;7.78;100.00;99591.31;5031431;28;20136;-37
2022/01/04 08:14:10;;;;;;;7.75;1.17;;;;;;;7.75;100.00;99589.16;5028769;28;20072;-40
2022/01/04 08:16:37;;;;;;;7.18;1.10;;;;;;;7.70;100.00;99594.81;5029863;28;20550;-41
2022/01/04 08:19:06;;;;;;;8.10;1.00;;;;;;;7.64;100.00;99593.28;5030637;28;20059;-41
2022/01/04 08:21:35;;;;;;;7.03;1.00;;;;;;;7.56;100.00;99589.31;5030799;28;20049;-40
2022/01/04 08:24:02;;;;;;;9.13;1.10;;;;;;;7.49;100.00;99588.88;5031543;28;20049;-36
2022/01/04 08:26:30;;;;;;;7.30;0.90;;;;;;;7.42;100.00;99594.03;5028392;28;20593;-36
2022/01/04 08:28:58;;;;;;;8.80;1.13;;;;;;;7.37;100.00;99614.41;5029747;28;20076;-39
2022/01/04 08:31:26;;;;;;;9.05;1.20;;;;;;;7.34;100.00;99617.78;5030933;28;20418;-35
2022/01/04 08:33:54;;;;;;;5.60;0.93;;;;;;;7.32;100.00;99630.31;5031212;28;20053;-37
2022/01/04 08:36:27;;;;;;;5.72;0.93;;;;;;;7.28;100.00;99624.56;5030234;28;20141;-37
2022/01/04 08:38:54;;;;;;;8.98;0.95;;;;;;;7.25;100.00;99631.53;5031103;28;20426;-35
2022/01/04 08:41:22;;;;;;;7.22;1.30;;;;;;;7.25;100.00;99633.50;5030983;28;20053;-37
2022/01/04 08:43:50;;;;;;;10.63;0.80;;;;;;;7.25;100.00;99636.25;5029804;28;20053;-33
2022/01/04 08:46:18;;;;;;;7.78;0.82;;;;;;;7.20;100.00;99637.19;5030927;28;20049;-33
2022/01/04 08:48:45;;;;;;;6.50;1.00;;;;;;;7.17;100.00;99648.91;5031241;28;20049;-31
2022/01/04 08:51:13;;;;;;;8.43;0.80;;;;;;;7.10;100.00;99656.81;5030413;28;20057;-35
2022/01/04 08:53:42;;;;;;;4.53;0.77;;;;;;;7.02;100.00;99667.75;5030914;28;20045;-39
2022/01/04 08:56:10;;;;;;;4.43;0.70;;;;;;;6.95;100.00;99673.72;5030352;28;20041;-38
2022/01/04 08:58:38;;;;;;;5.13;0.60;;;;;;;6.90;100.00;99682.13;5029015;28;20057;-36
2022/01/04 09:01:05;;;;;;;3.30;0.50;;;;;;;6.87;100.00;99679.97;5030956;28;20502;-37
2022/01/04 09:03:34;;;;;;;2.17;0.52;;;;;;;6.82;100.00;99668.94;5031539;28;20132;-37
2022/01/04 09:06:02;;;;;;;2.67;0.50;;;;;;;6.75;100.00;99680.44;5029017;28;20049;-38
2022/01/04 09:08:29;;;;;;;3.42;0.50;;;;;;;6.72;100.00;99683.81;5031596;28;20053;-35
2022/01/04 09:10:58;;;;;;;2.55;0.50;;;;;;;6.69;100.00;99686.38;5030609;28;20068;-40
2022/01/04 09:13:32;;;;;;;2.72;0.57;;;;;;;6.65;100.00;99693.63;5030328;28;20041;-35
2022/01/04 09:18:50;;;;;;;2.17;0.50;;;;;;;6.61;100.00;99706.44;5030373;28;20517;-34
2022/01/04 09:21:24;;;;;;;4.07;0.70;;;;;;;6.57;100.00;99707.06;5030909;28;20396;-34
2022/01/04 09:23:53;;;;;;;4.80;0.60;;;;;;;6.54;100.00;99710.44;5031774;28;20068;-35
2022/01/04 09:26:23;;;;;;;3.15;0.57;;;;;;;6.53;100.00;99716.28;5030739;28;20041;-31
2022/01/04 09:28:51;;;;;;;3.45;0.40;;;;;;;6.50;100.00;99711.34;5031519;28;20059;-42
2022/01/04 09:31:22;;;;;;;4.35;0.68;;;;;;;6.47;100.00;99718.28;5031654;28;20057;-35
2022/01/04 09:33:50;;;;;;;2.80;0.40;;;;;;;6.43;100.00;99722.78;5030520;28;20049;-31
2022/01/04 09:36:28;;;;;;;4.82;0.50;;;;;;;6.39;100.00;99730.06;5031483;28;20056;-41
2022/01/04 09:38:56;;;;;;;3.33;0.60;;;;;;;6.37;100.00;99724.00;5030650;28;20056;-35
2022/01/04 09:41:25;;;;;;;3.50;0.43;;;;;;;6.35;100.00;99723.47;5013640;28;20050;-38
2022/01/04 09:43:53;;;;;;;5.43;0.60;;;;;;;6.33;100.00;99727.66;5031339;28;20045;-34
2022/01/04 09:46:21;;;;;;;3.22;0.63;;;;;;;6.27;100.00;99726.91;5030228;28;20407;-32
2022/01/04 09:48:49;;;;;;;7.28;0.75;;;;;;;6.25;100.00;99734.69;5031281;28;20049;-37
2022/01/04 09:51:17;;;;;;;2.85;0.40;;;;;;;6.21;100.00;99740.00;5031260;28;20217;-38
2022/01/04 09:53:45;;;;;;;3.25;0.40;;;;;;;6.16;100.00;99748.41;5030891;28;20053;-42
2022/01/04 09:56:14;;;;;;;3.22;0.40;;;;;;;6.13;100.00;99745.38;5031601;28;20133;-37
2022/01/04 09:58:43;;;;;;;5.00;1.05;;;;;;;6.13;100.00;99750.94;5030788;28;20115;-36
2022/01/04 10:01:19;;;;;;;4.60;0.40;;;;;;;6.10;100.00;99740.44;5030201;28;20052;-33
2022/01/04 10:04:07;;;;;;;3.15;0.40;;;;;;;6.07;100.00;99743.81;5031111;28;20419;-34
2022/01/04 10:06:37;;;;;;;6.95;0.70;;;;;;;6.05;100.00;99743.28;5031103;28;20052;-39
2022/01/04 10:09:08;;;;;;;3.70;0.50;;;;;;;6.05;100.00;99754.34;5033069;28;20052;-35
2022/01/04 10:11:39;;;;;;;8.13;1.00;;;;;;;6.05;100.00;99755.16;5034936;28;20072;-29
2022/01/04 10:14:27;;;;;;;5.43;0.50;;;;;;;6.08;100.00;99753.75;5034252;28;20064;-33
2022/01/04 10:16:56;;;;;;;4.68;0.65;;;;;;;6.07;100.00;99754.88;5035007;28;20042;-33
2022/01/04 10:19:28;;;;;;;3.88;0.77;;;;;;;6.10;100.00;99757.06;5034990;28;20048;-33
2022/01/04 10:22:19;;;;;;;4.10;0.50;;;;;;;6.07;100.00;99757.66;5033902;28;20077;-38
2022/01/04 10:24:49;;;;;;;4.97;0.55;;;;;;;6.05;100.00;99759.88;5035138;28;20057;-35
2022/01/04 10:27:26;;;;;;;4.32;0.80;;;;;;;6.03;100.00;99757.41;5034833;28;20522;-38
2022/01/04 10:30:20;;;;;;;4.20;0.77;;;;;;;6.02;100.00;99761.31;5033825;28;20514;-36
2022/01/04 10:32:50;;;;;;;7.97;0.95;;;;;;;5.99;100.00;99758.31;5034757;28;20414;-42
2022/01/04 10:35:28;;;;;;;6.32;0.65;;;;;;;6.00;100.00;99748.88;5034001;28;20048;-35
2022/01/04 10:37:57;;;;;;;4.68;0.70;;;;;;;6.01;100.00;99745.81;5034561;28;20512;-37
2022/01/04 10:40:26;;;;;;;5.30;0.50;;;;;;;6.02;100.00;99744.69;5034523;28;20038;-38
2022/01/04 10:42:55;;;;;;;4.95;0.98;;;;;;;6.05;100.00;99741.31;5033698;28;20578;-37
2022/01/04 10:45:28;;;;;;;4.03;0.60;;;;;;;6.08;100.00;99737.97;5034622;28;20050;-37
2022/01/04 10:47:58;;;;;;;4.93;0.60;;;;;;;6.06;100.00;99734.66;5034568;28;20136;-40
2022/01/04 10:50:34;;;;;;;2.70;0.40;;;;;;;6.13;100.00;99735.13;5033588;28;20053;-38
2022/01/04 10:53:02;;;;;;;2.63;0.75;;;;;;;6.17;100.00;99732.59;5034234;28;20049;-37
2022/01/04 10:55:32;;;;;;;8.15;0.60;;;;;;;6.21;100.00;99734.47;5034528;28;20136;-40
2022/01/04 10:58:01;;;;;;;2.78;0.50;;;;;;;6.24;100.00;99733.03;5033292;28;20075;-38
2022/01/04 11:00:31;;;;;;;5.97;0.70;;;;;;;6.27;100.00;99743.53;5034292;28;20055;-41
2022/01/04 11:03:02;;;;;;;3.55;0.60;;;;;;;6.27;100.00;99740.75;5033998;28;20548;-34
2022/01/04 11:05:30;;;;;;;6.20;0.70;;;;;;;6.29;100.00;99734.91;5033298;28;20049;-39
2022/01/04 11:08:02;;;;;;;6.65;0.95;;;;;;;6.28;100.00;99741.59;5033888;28;20049;-32
2022/01/04 11:10:32;;;;;;;;;;;;;;;6.24;100.00;99735.81;5033316;28;20561;-33
2022/01/04 11:13:00;;;;;;;7.00;1.05;;;;;;;6.28;100.00;99733.28;5034077;28;19921;-35
2022/01/04 11:15:31;;;;;;;3.92;0.73;;;;;;;6.34;100.00;99734.84;5033870;28;20050;-33
2022/01/04 11:17:59;;;;;;;4.65;0.70;;;;;;;6.38;100.00;99731.19;5033075;28;20045;-36
2022/01/04 11:20:26;;;;;;;5.15;1.25;;;;;;;6.41;100.00;99741.66;5033173;28;20132;-31
2022/01/04 11:22:58;;;;;;;4.22;0.70;;;;;;;6.42;100.00;99740.53;5033785;28;20049;-39
2022/01/04 11:25:26;;;;;;;4.80;0.73;;;;;;;6.44;100.00;99737.47;5033103;28;20143;-39
2022/01/04 11:27:54;;;;;;;5.00;0.80;;;;;;;6.46;100.00;99749.06;5033674;28;20053;-38
2022/01/04 11:30:26;;;;;;;6.75;0.90;;;;;;;6.45;100.00;99753.78;5033672;28;20057;-34
2022/01/04 11:33:07;;;;;;;6.30;0.90;;;;;;;6.44;100.00;99756.88;5032996;28;20077;-37
2022/01/04 11:35:35;;;;;;;6.10;0.75;;;;;;;6.44;100.00;99762.41;5033801;28;20046;-37
2022/01/04 11:38:03;;;;;;;9.18;1.00;;;;;;;6.45;100.00;99766.81;5033466;28;20509;-35
2022/01/04 11:40:34;;;;;;;5.68;0.75;;;;;;;6.45;100.00;99766.81;5032792;28;20045;-37
2022/01/04 11:43:04;;;;;;;6.15;0.70;;;;;;;6.44;100.00;99771.53;5033333;28;20152;-35